Time;durP1;ratioP1;P1;durP2;ratioP2;P2;SDS_P1;SDS_P2;PMS_P1;PMS_P2;Temp;Humidity;BMP_temperature;BMP_pressure;BME280_temperature;BME280_humidity;BME280_pressure;Samples;Min_cycle;Max_cycle;Signal;HPM_P1;HPM_P2
2021/05/18 00:00:47;;;;;;;3.17;2.87;;;;;;;17.83;73.52;99816.84;1749760;82;20883;-80
2021/05/18 00:03:15;;;;;;;3.55;3.27;;;;;;;17.83;73.57;99820.35;1749623;80;21395;-79
2021/05/18 00:05:47;;;;;;;4.25;3.12;;;;;;;17.81;73.51;99822.30;1749574;82;21716;-80
2021/05/18 00:08:15;;;;;;;3.85;3.55;;;;;;;17.77;73.52;99813.81;1749702;80;20891;-81
2021/05/18 00:13:34;;;;;;;4.62;3.42;;;;;;;17.74;73.72;99815.47;1749743;82;20930;-80
2021/05/18 00:16:02;;;;;;;7.28;3.37;;;;;;;17.73;73.67;99811.64;1749510;80;21371;-79
2021/05/18 00:18:30;;;;;;;5.62;3.70;;;;;;;17.72;73.62;99811.28;1749701;82;21714;-79
2021/05/18 00:20:57;;;;;;;4.17;3.77;;;;;;;17.73;73.60;99816.44;1749590;82;20941;-80
2021/05/18 00:23:25;;;;;;;4.78;3.37;;;;;;;17.72;73.58;99812.61;1740059;81;20895;-81
2021/05/18 00:25:52;;;;;;;5.30;3.67;;;;;;;17.71;73.64;99804.34;1735582;82;21673;-81
2021/05/18 00:28:19;;;;;;;6.95;3.80;;;;;;;17.69;73.62;99804.48;1735771;82;20951;-82
2021/05/18 00:30:46;;;;;;;5.67;3.37;;;;;;;17.69;73.59;99799.68;1735607;81;21760;-81
2021/05/18 00:33:16;;;;;;;4.40;4.00;;;;;;;17.68;73.65;99801.51;1735579;82;20867;-83
2021/05/18 00:35:44;;;;;;;4.42;3.70;;;;;;;17.67;73.63;99798.50;1735618;82;20859;-81
2021/05/18 00:38:12;;;;;;;3.85;3.37;;;;;;;17.66;73.62;99795.53;1735487;82;20973;-81
2021/05/18 00:40:41;;;;;;;5.17;4.12;;;;;;;17.68;73.67;99799.36;1737815;82;21014;-81
2021/05/18 00:43:09;;;;;;;8.58;3.92;;;;;;;17.70;73.70;99794.73;1735653;81;21597;-82
2021/05/18 00:45:42;;;;;;;4.78;4.08;;;;;;;17.70;73.62;99791.58;1714934;81;21030;-82
2021/05/18 00:48:11;;;;;;;5.55;3.98;;;;;;;17.70;73.53;99788.92;1736042;82;21456;-83
2021/05/18 00:50:41;;;;;;;3.85;3.40;;;;;;;17.67;73.59;99791.88;1735602;81;20978;-82
2021/05/18 00:53:08;;;;;;;8.03;4.45;;;;;;;17.67;73.58;99795.85;1735678;82;20978;-81
2021/05/18 00:58:26;;;;;;;5.05;4.05;;;;;;;17.68;73.77;99803.34;1691698;83;21674;-81
2021/05/18 01:01:06;;;;;;;6.60;4.17;;;;;;;17.67;73.69;99803.81;1691674;83;20985;-81
2021/05/18 01:03:35;;;;;;;8.58;3.83;;;;;;;17.64;73.72;99804.13;1691544;83;20971;-82
2021/05/18 01:08:54;;;;;;;5.92;5.33;;;;;;;17.56;74.00;99794.33;1691572;83;21874;-83
2021/05/18 01:11:26;;;;;;;5.22;4.47;;;;;;;17.54;74.12;99791.48;1691751;84;20924;-82
2021/05/18 01:13:57;;;;;;;4.95;4.45;;;;;;;17.53;74.19;99788.50;1691935;83;20986;-79
2021/05/18 01:16:29;;;;;;;4.72;4.28;;;;;;;17.50;74.57;99791.48;1691640;84;21102;-81
2021/05/18 01:18:56;;;;;;;6.70;4.60;;;;;;;17.47;74.48;99785.14;1668564;84;21520;-80
2021/05/18 01:21:24;;;;;;;5.55;4.72;;;;;;;17.43;74.96;99794.39;1734322;81;21485;-80
2021/05/18 01:23:51;;;;;;;5.60;5.12;;;;;;;17.43;74.96;99794.39;1735327;82;20915;-81
2021/05/18 01:26:18;;;;;;;5.75;4.70;;;;;;;17.39;74.94;99793.39;1735624;82;20923;-79
2021/05/18 01:28:47;;;;;;;4.80;4.40;;;;;;;17.36;75.19;99792.86;1735485;82;20946;-80
2021/05/18 01:31:18;;;;;;;5.53;5.03;;;;;;;17.35;75.36;99800.48;1735699;82;20894;-79
2021/05/18 01:33:43;;;;;;;8.00;4.80;;;;;;;17.32;75.49;99798.98;1736158;81;21356;-80
2021/05/18 01:36:12;;;;;;;6.10;4.78;;;;;;;17.31;75.61;99803.94;1736342;82;20919;-80
2021/05/18 01:38:45;;;;;;;6.30;4.25;;;;;;;17.29;75.70;99811.20;1735824;82;20986;-80
2021/05/18 01:43:57;;;;;;;5.40;4.70;;;;;;;17.25;75.93;99815.15;1736154;82;20977;-81
2021/05/18 01:46:26;;;;;;;5.95;4.78;;;;;;;17.23;76.04;99809.67;1735938;82;21098;-81
2021/05/18 01:49:06;;;;;;;6.42;5.00;;;;;;;17.24;76.16;99814.00;1714453;81;20943;-81
2021/05/18 01:51:43;;;;;;;10.53;5.60;;;;;;;17.25;76.18;99820.45;1734147;82;20883;-83
2021/05/18 01:54:18;;;;;;;5.40;4.75;;;;;;;17.28;76.20;99824.13;1735589;82;21466;-82
2021/05/18 01:59:31;;;;;;;8.58;6.72;;;;;;;17.29;76.37;99839.03;1735349;82;21483;-79
2021/05/18 02:02:03;;;;;;;7.08;5.62;;;;;;;17.29;76.48;99837.70;1735240;82;20880;-80
2021/05/18 02:04:35;;;;;;;9.83;5.15;;;;;;;17.31;76.56;99834.41;1735428;82;20903;-82
2021/05/18 02:07:14;;;;;;;9.90;6.42;;;;;;;17.32;76.66;99837.89;1735655;81;20891;-82
2021/05/18 02:09:42;;;;;;;9.10;6.75;;;;;;;17.30;76.74;99830.11;1736181;82;20891;-81
2021/05/18 02:12:09;;;;;;;12.60;7.22;;;;;;;17.28;76.90;99832.08;1735669;81;21881;-79
2021/05/18 02:14:39;;;;;;;11.55;7.90;;;;;;;17.27;77.07;99828.25;1735498;82;21480;-82
2021/05/18 02:17:18;;;;;;;10.30;8.08;;;;;;;17.28;77.16;99831.26;1734520;81;21479;-83
2021/05/18 02:25:20;;;;;;;11.05;7.72;;;;;;;17.25;77.44;99840.82;1749433;82;20922;-80
2021/05/18 02:28:07;;;;;;;11.88;8.33;;;;;;;17.23;77.61;99846.77;1749516;82;20903;-79
2021/05/18 02:30:37;;;;;;;9.18;8.23;;;;;;;17.19;77.69;99845.77;1749383;81;20986;-79
2021/05/18 02:33:05;;;;;;;9.55;8.63;;;;;;;17.19;77.80;99843.61;1749438;80;20921;-81
2021/05/18 02:35:36;;;;;;;13.20;10.60;;;;;;;17.17;77.91;99844.26;1749533;81;21499;-83
2021/05/18 02:38:04;;;;;;;11.73;9.95;;;;;;;17.15;77.97;99849.70;1749466;82;21521;-81
2021/05/18 02:40:31;;;;;;;11.78;10.38;;;;;;;17.15;78.04;99854.17;1749399;82;21371;-79
2021/05/18 02:42:59;;;;;;;17.10;9.83;;;;;;;17.13;78.11;99854.32;1749491;81;20965;-81
2021/05/18 02:45:47;;;;;;;9.65;8.65;;;;;;;17.13;78.24;99854.32;1749412;80;21577;-81
2021/05/18 02:50:52;;;;;;;8.63;6.97;;;;;;;17.12;78.22;99858.44;1749432;82;21043;-79
2021/05/18 02:53:21;;;;;;;7.62;6.72;;;;;;;17.09;77.97;99863.55;1748118;82;20879;-80
2021/05/18 02:58:35;;;;;;;10.03;6.72;;;;;;;17.05;77.75;99863.55;1749830;82;20947;-81
2021/05/18 03:01:02;;;;;;;8.13;6.00;;;;;;;17.04;77.73;99858.39;1749474;82;20918;-81
2021/05/18 03:03:29;;;;;;;7.87;6.45;;;;;;;17.04;77.75;99861.03;1749406;82;21082;-83
2021/05/18 03:05:57;;;;;;;8.28;7.03;;;;;;;17.04;77.71;99863.69;1749921;82;20898;-81
2021/05/18 03:08:24;;;;;;;7.40;6.42;;;;;;;17.07;77.69;99867.34;1750008;82;20926;-81
2021/05/18 03:10:51;;;;;;;10.23;7.25;;;;;;;17.07;77.71;99868.67;1749988;80;21392;-82
2021/05/18 03:13:18;;;;;;;11.38;7.92;;;;;;;17.09;77.69;99875.97;1749952;82;20934;-82
2021/05/18 03:15:46;;;;;;;8.18;6.28;;;;;;;17.10;77.62;99882.45;1749836;82;21130;-82
2021/05/18 03:18:14;;;;;;;7.55;6.62;;;;;;;17.08;77.55;99877.80;1722754;82;20922;-81
2021/05/18 03:20:41;;;;;;;8.18;6.45;;;;;;;17.08;77.57;99882.27;1749757;82;20851;-83
2021/05/18 03:23:08;;;;;;;12.68;6.53;;;;;;;17.09;77.54;99891.87;1723650;81;20910;-82
2021/05/18 03:25:35;;;;;;;8.53;6.62;;;;;;;17.11;77.38;99891.23;1757758;80;21044;-82
2021/05/18 03:28:02;;;;;;;11.53;5.55;;;;;;;17.13;77.05;99893.23;1757233;81;21133;-83
2021/05/18 03:38:24;;;;;;;7.20;5.87;;;;;;;17.30;75.78;99885.77;1813211;79;22418;-83
2021/05/18 03:40:39;;;;;;;10.25;5.83;;;;;;;17.29;75.44;99887.23;1779963;80;20909;-80
2021/05/18 03:43:21;;;;;;;7.87;6.12;;;;;;;17.33;75.29;99888.09;1783926;80;21074;-81
2021/05/18 03:45:42;;;;;;;10.60;6.08;;;;;;;17.40;75.06;99889.64;1781407;80;20976;-82
2021/05/18 03:53:44;;;;;;;10.50;6.80;;;;;;;17.52;74.26;99891.06;1784016;80;21005;-82
2021/05/18 03:59:03;;;;;;;8.43;6.22;;;;;;;17.56;73.99;99895.08;1783806;79;21478;-83
2021/05/18 04:04:21;;;;;;;12.10;6.85;;;;;;;17.63;73.75;99889.13;1783865;79;21518;-80
2021/05/18 04:18:27;;;;;;;8.95;7.58;;;;;;;17.84;73.37;99882.18;1783918;80;20882;-80
2021/05/18 04:20:24;;;;;;;8.00;7.15;;;;;;;17.93;72.93;99882.56;1757610;80;20976;-82
2021/05/18 04:23:14;;;;;;;10.72;7.78;;;;;;;18.01;72.60;99884.77;1782466;80;21077;-80
2021/05/18 04:50:43;;;;;;;7.97;6.78;;;;;;;17.93;70.96;99898.48;1779359;79;21064;-83
2021/05/18 04:53:18;;;;;;;7.65;5.85;;;;;;;17.92;70.93;99904.75;1775503;80;21032;-85
2021/05/18 05:02:07;;;;;;;10.75;8.00;;;;;;;17.93;70.81;99905.93;1773797;80;20902;-86
2021/05/18 05:14:34;;;;;;;11.78;6.53;;;;;;;18.23;69.67;99911.23;1778341;80;20925;-84
2021/05/18 05:17:04;;;;;;;10.05;8.70;;;;;;;18.43;69.08;99909.64;1777943;80;21071;-75
2021/05/18 05:19:31;;;;;;;14.30;6.87;;;;;;;18.73;68.95;99912.23;1778034;80;20913;-72
2021/05/18 05:21:59;;;;;;;8.60;6.53;;;;;;;19.10;67.22;99912.34;1778074;79;21034;-76
2021/05/18 05:24:26;;;;;;;9.45;6.60;;;;;;;19.54;66.11;99910.69;1778197;80;21012;-72
2021/05/18 05:26:53;;;;;;;9.13;5.90;;;;;;;19.88;63.99;99909.15;1778347;79;20909;-71
2021/05/18 05:29:20;;;;;;;7.17;5.47;;;;;;;20.23;63.26;99909.72;1778121;80;21040;-73
2021/05/18 05:31:48;;;;;;;9.68;5.60;;;;;;;20.44;62.03;99908.30;1778310;79;21486;-74
2021/05/18 05:34:16;;;;;;;9.10;6.92;;;;;;;20.50;61.32;99907.09;1778213;79;21415;-74
2021/05/18 05:36:43;;;;;;;6.12;5.12;;;;;;;20.65;61.13;99907.70;1777921;79;21147;-75
2021/05/18 05:39:19;;;;;;;7.58;5.85;;;;;;;20.91;60.83;99907.39;1778101;80;20925;-75
2021/05/18 05:41:41;;;;;;;8.73;5.75;;;;;;;21.20;59.37;99909.34;1777086;80;21155;-73
2021/05/18 05:44:08;;;;;;;10.13;5.78;;;;;;;21.32;58.75;99909.74;1778044;80;20997;-75
2021/05/18 05:46:36;;;;;;;8.55;5.80;;;;;;;21.38;56.93;99915.70;1778152;80;20981;-73
2021/05/18 05:49:03;;;;;;;10.53;7.28;;;;;;;21.29;56.55;99907.44;1778071;80;20913;-73
2021/05/18 05:51:30;;;;;;;7.17;5.22;;;;;;;21.38;57.14;99902.36;1778029;79;20902;-71
2021/05/18 05:54:00;;;;;;;8.98;5.72;;;;;;;21.71;57.14;99902.09;1777987;80;20975;-76
2021/05/18 05:56:29;;;;;;;8.03;4.95;;;;;;;22.11;55.57;99902.67;1777942;80;20953;-70
2021/05/18 05:58:56;;;;;;;7.62;5.08;;;;;;;22.47;54.93;99905.92;1777933;79;20973;-78
2021/05/18 06:01:23;;;;;;;7.55;4.55;;;;;;;22.77;53.92;99908.03;1777984;79;20938;-75
2021/05/18 06:03:51;;;;;;;7.87;4.42;;;;;;;23.05;53.02;99900.63;1778152;80;21364;-71
2021/05/18 06:06:17;;;;;;;8.05;4.83;;;;;;;23.19;52.52;99893.05;1777619;79;21009;-75
2021/05/18 06:08:47;;;;;;;5.83;4.55;;;;;;;23.20;52.64;99892.54;1777970;79;21609;-75
2021/05/18 06:11:26;;;;;;;13.05;4.90;;;;;;;23.29;52.34;99895.39;1778063;80;20862;-74
2021/05/18 06:16:44;;;;;;;7.70;4.45;;;;;;;22.87;52.29;99898.36;1777603;80;20989;-75
2021/05/18 06:46:12;;;;;;;9.25;4.78;;;;;;;22.56;51.94;99887.42;1769518;81;21084;-73
2021/05/18 06:48:31;;;;;;;6.58;4.83;;;;;;;22.72;51.62;99884.55;1748219;81;20917;-72
2021/05/18 06:51:00;;;;;;;4.50;3.90;;;;;;;22.87;51.43;99881.80;1769456;81;20914;-71
2021/05/18 06:53:27;;;;;;;8.33;4.60;;;;;;;23.12;50.94;99878.77;1769526;81;20954;-72
2021/05/18 06:55:56;;;;;;;5.25;4.67;;;;;;;23.36;49.45;99881.55;1769653;79;20926;-71
2021/05/18 07:01:08;;;;;;;8.33;4.35;;;;;;;23.61;49.07;99887.32;1678825;83;20963;-72
2021/05/18 07:03:44;;;;;;;6.30;4.30;;;;;;;23.78;48.68;99886.00;1647387;85;20945;-70
2021/05/18 07:06:26;;;;;;;5.65;3.92;;;;;;;23.99;48.16;99880.27;1678825;83;21527;-70
2021/05/18 07:11:05;;;;;;;10.72;4.45;;;;;;;24.77;48.33;99878.64;1679454;84;21534;-71
2021/05/18 07:13:32;;;;;;;4.30;3.90;;;;;;;25.18;47.61;99872.28;1678206;83;20959;-72
2021/05/18 07:16:00;;;;;;;9.00;3.92;;;;;;;25.54;45.11;99866.50;1648107;85;21008;-73
2021/05/18 07:18:27;;;;;;;5.30;3.70;;;;;;;25.75;44.65;99867.31;1647392;85;21035;-73
2021/05/18 07:20:54;;;;;;;5.30;3.15;;;;;;;25.91;43.72;99860.69;1679087;83;21460;-73
2021/05/18 07:23:24;;;;;;;8.10;3.00;;;;;;;26.21;43.66;99869.05;1678636;84;21590;-72
2021/05/18 07:25:50;;;;;;;8.38;3.52;;;;;;;26.58;42.84;99854.02;1647540;86;21520;-72
2021/05/18 07:28:17;;;;;;;13.08;3.75;;;;;;;27.03;42.12;99858.47;1679204;84;20972;-75
2021/05/18 07:30:46;;;;;;;12.70;4.42;;;;;;;27.40;40.61;99852.71;1647741;86;21481;-73
2021/05/18 07:33:13;;;;;;;6.58;3.40;;;;;;;27.61;40.54;99854.15;1647756;86;20953;-74
2021/05/18 07:35:42;;;;;;;5.78;3.72;;;;;;;27.88;40.06;99848.51;1678808;83;21949;-74
2021/05/18 07:38:09;;;;;;;5.20;3.42;;;;;;;27.96;39.34;99846.05;1672811;84;21065;-73
2021/05/18 07:40:36;;;;;;;6.53;3.25;;;;;;;27.80;39.66;99848.80;1774894;80;21533;-74
2021/05/18 07:43:05;;;;;;;6.03;4.22;;;;;;;27.73;40.00;99848.05;1773525;79;20910;-74
2021/05/18 07:45:34;;;;;;;4.83;3.20;;;;;;;27.53;40.72;99845.56;1774889;80;20937;-73
2021/05/18 07:48:14;;;;;;;6.03;3.33;;;;;;;27.32;40.48;99844.09;1775096;79;21043;-74
2021/05/18 07:50:47;;;;;;;5.00;2.87;;;;;;;27.09;40.86;99844.15;1774886;80;21371;-73
2021/05/18 08:06:59;;;;;;;4.80;3.22;;;;;;;27.77;39.14;99818.24;1687376;84;20906;-73
2021/05/18 08:09:29;;;;;;;6.83;5.67;;;;;;;28.01;38.21;99819.23;1687026;85;21049;-73
2021/05/18 08:11:56;;;;;;;4.05;3.45;;;;;;;28.10;38.18;99811.98;1687443;85;20898;-74
2021/05/18 08:14:25;;;;;;;7.35;3.47;;;;;;;28.33;38.77;99815.02;1687412;85;21133;-72
2021/05/18 08:17:10;;;;;;;7.42;4.20;;;;;;;28.66;38.19;99819.97;1687352;83;20929;-73
2021/05/18 08:59:03;;;;;;;6.45;3.67;;;;;;;29.36;35.54;99798.98;1774979;80;21048;-74
2021/05/18 10:36:07;;;;;;;3.50;2.40;;;;;;;27.09;39.10;99753.98;1775189;79;20862;-75
2021/05/18 10:38:42;;;;;;;3.50;2.27;;;;;;;27.21;39.23;99746.02;1775487;80;21012;-73
2021/05/18 10:41:27;;;;;;;3.50;2.98;;;;;;;27.22;38.45;99736.38;1778220;80;21238;-76
2021/05/18 10:44:00;;;;;;;3.22;2.12;;;;;;;27.08;38.17;99732.16;1777912;79;21366;-78
2021/05/18 10:46:29;;;;;;;5.47;2.55;;;;;;;26.93;38.23;99739.75;1778042;79;21098;-76
2021/05/18 10:49:03;;;;;;;6.67;2.67;;;;;;;27.04;38.41;99734.46;1777983;80;21040;-76
2021/05/18 10:51:35;;;;;;;5.20;3.00;;;;;;;27.03;37.83;99733.33;1777897;79;21460;-76
2021/05/18 10:54:17;;;;;;;3.42;2.72;;;;;;;26.88;37.34;99726.44;1776104;80;20917;-76
2021/05/18 10:57:10;;;;;;;5.10;2.87;;;;;;;26.58;37.39;99725.45;1777979;80;21426;-74
2021/05/18 10:59:44;;;;;;;3.87;2.63;;;;;;;26.18;38.48;99727.85;1772875;80;21297;-76
2021/05/18 11:02:38;;;;;;;6.55;3.17;;;;;;;25.96;38.89;99720.64;1778008;79;20877;-76
2021/05/18 11:05:12;;;;;;;2.67;2.47;;;;;;;25.77;39.89;99720.21;1777898;79;20910;-74
2021/05/18 11:07:41;;;;;;;3.08;2.42;;;;;;;25.68;39.92;99718.77;1777815;79;20973;-75
2021/05/18 11:10:19;;;;;;;5.62;3.47;;;;;;;25.74;39.47;99709.88;1778002;79;20921;-77
2021/05/18 11:12:54;;;;;;;10.90;4.65;;;;;;;25.96;39.73;99705.86;1777897;80;20997;-76
2021/05/18 11:15:23;;;;;;;4.15;3.33;;;;;;;26.11;39.21;99708.27;1777960;80;20854;-77
2021/05/18 11:17:56;;;;;;;3.52;2.90;;;;;;;26.23;39.43;99705.20;1777876;80;21556;-75
2021/05/18 11:23:21;;;;;;;6.37;3.17;;;;;;;26.43;39.27;99696.15;1777989;79;20981;-75
2021/05/18 11:26:02;;;;;;;4.03;2.70;;;;;;;26.49;39.08;99691.77;1777568;79;21643;-74
2021/05/18 11:28:47;;;;;;;4.90;2.08;;;;;;;26.55;39.08;99685.53;1777847;80;21016;-75
2021/05/18 11:31:20;;;;;;;5.12;1.92;;;;;;;26.65;39.38;99684.52;1773088;80;21061;-77
2021/05/18 11:33:53;;;;;;;3.15;1.92;;;;;;;26.71;39.15;99682.30;1747165;82;21028;-79
2021/05/18 11:36:24;;;;;;;5.17;1.60;;;;;;;26.73;38.54;99669.98;1709220;83;20927;-77
2021/05/18 11:39:02;;;;;;;3.90;1.80;;;;;;;26.75;38.99;99667.90;1687432;84;21149;-74
2021/05/18 11:41:38;;;;;;;5.33;2.25;;;;;;;26.79;40.20;99664.55;1695572;84;21045;-78
2021/05/18 11:44:09;;;;;;;2.45;1.40;;;;;;;26.85;38.20;99668.20;1695619;83;21544;-74
2021/05/18 11:46:46;;;;;;;5.15;1.70;;;;;;;26.80;36.96;99658.10;1681020;84;20978;-76
2021/05/18 11:49:14;;;;;;;6.42;2.00;;;;;;;26.63;37.87;99659.71;1695612;84;21386;-74
2021/05/18 11:51:45;;;;;;;4.90;1.65;;;;;;;26.49;38.60;99642.03;1695654;84;21098;-76
2021/05/18 11:54:14;;;;;;;2.92;1.12;;;;;;;26.42;37.00;99648.28;1695543;84;20938;-75
2021/05/18 11:56:41;;;;;;;4.53;1.85;;;;;;;26.24;36.85;99649.05;1695580;84;20913;-77
2021/05/18 11:59:11;;;;;;;3.58;1.60;;;;;;;26.09;37.52;99644.50;1695590;84;21545;-74
2021/05/18 12:01:45;;;;;;;5.83;2.77;;;;;;;26.01;37.50;99640.23;1695687;84;20968;-74
2021/05/18 12:04:17;;;;;;;3.58;3.00;;;;;;;25.95;37.82;99635.72;1695898;84;21628;-73
2021/05/18 12:07:03;;;;;;;4.35;3.00;;;;;;;25.93;38.90;99637.80;1695758;83;20937;-75
2021/05/18 12:09:33;;;;;;;6.22;3.87;;;;;;;25.94;38.24;99631.89;1695752;83;21458;-76
2021/05/18 12:12:05;;;;;;;3.50;3.22;;;;;;;25.96;37.95;99626.60;1695605;84;21390;-73
2021/05/18 12:14:32;;;;;;;4.10;2.55;;;;;;;25.90;37.83;99615.90;1695781;83;21014;-74
2021/05/18 12:17:00;;;;;;;3.12;2.83;;;;;;;25.80;37.30;99612.33;1681083;85;21514;-74
2021/05/18 12:19:27;;;;;;;7.03;2.70;;;;;;;25.65;38.18;99605.37;1695797;83;21001;-75
2021/05/18 12:21:55;;;;;;;2.92;2.62;;;;;;;25.55;39.34;99606.91;1681111;85;20894;-74
2021/05/18 12:24:27;;;;;;;2.52;2.33;;;;;;;25.47;38.62;99614.67;1695832;83;20969;-75
2021/05/18 12:27:01;;;;;;;3.00;2.10;;;;;;;25.37;38.80;99612.46;1681095;84;20938;-75
2021/05/18 12:29:46;;;;;;;3.40;2.35;;;;;;;25.34;38.12;99612.87;1668500;84;20904;-75
2021/05/18 12:32:27;;;;;;;9.50;2.92;;;;;;;25.25;37.84;99602.60;1695505;84;21422;-75
2021/05/18 12:34:58;;;;;;;7.78;2.27;;;;;;;25.11;38.10;99599.94;1695686;84;20930;-74
2021/05/18 12:37:43;;;;;;;4.58;2.33;;;;;;;24.93;38.80;99597.94;1681117;85;20899;-76
2021/05/18 12:40:32;;;;;;;4.85;2.20;;;;;;;24.76;39.56;99598.89;1721296;82;20934;-74
2021/05/18 12:43:15;;;;;;;5.92;2.70;;;;;;;24.55;40.04;99597.30;1739109;81;21550;-75
2021/05/18 12:45:43;;;;;;;6.28;2.80;;;;;;;24.38;41.02;99596.86;1738446;82;20933;-75
2021/05/18 12:48:12;;;;;;;7.47;2.77;;;;;;;24.26;41.48;99594.52;1739090;81;21506;-76
2021/05/18 12:50:48;;;;;;;4.53;2.27;;;;;;;24.23;41.73;99590.07;1739067;82;20997;-75
2021/05/18 12:53:30;;;;;;;5.62;3.10;;;;;;;24.24;42.05;99587.19;1739217;82;20874;-75
2021/05/18 12:55:58;;;;;;;12.43;2.42;;;;;;;24.30;42.12;99589.05;1739075;82;21079;-76
2021/05/18 12:58:32;;;;;;;3.85;1.80;;;;;;;24.39;42.06;99585.12;1739149;82;20921;-75
2021/05/18 13:01:13;;;;;;;3.22;1.87;;;;;;;24.48;41.67;99591.62;1739028;82;21458;-73
2021/05/18 13:03:41;;;;;;;7.05;2.45;;;;;;;24.56;41.92;99594.09;1739064;81;20953;-75
2021/05/18 13:06:13;;;;;;;7.65;3.37;;;;;;;24.61;41.95;99596.47;1719107;82;21649;-74
2021/05/18 13:08:42;;;;;;;8.20;1.92;;;;;;;24.61;41.67;99609.03;1739116;82;21079;-75
2021/05/18 13:12:11;;;;;;;2.70;1.90;;;;;;;24.47;41.81;99600.16;1739027;82;20997;-74
2021/05/18 13:13:53;;;;;;;5.42;2.10;;;;;;;24.28;42.20;99607.68;1736315;81;21037;-76
2021/05/18 13:16:26;;;;;;;8.28;1.75;;;;;;;24.13;42.74;99606.56;1738937;82;21001;-74
2021/05/18 13:19:06;;;;;;;6.97;3.00;;;;;;;24.03;42.55;99607.47;1739080;82;20963;-74
2021/05/18 13:21:46;;;;;;;9.75;2.45;;;;;;;23.93;42.34;99615.92;1739058;82;21496;-76
2021/05/18 13:26:39;;;;;;;5.35;3.15;;;;;;;23.70;42.87;99616.23;1738990;81;20971;-75
2021/05/18 13:29:18;;;;;;;3.58;3.02;;;;;;;23.57;42.75;99613.03;1739106;81;20975;-74
2021/05/18 13:31:55;;;;;;;5.33;2.52;;;;;;;23.45;43.30;99615.45;1739156;82;20934;-73
2021/05/18 13:34:22;;;;;;;5.15;2.02;;;;;;;23.33;43.49;99615.20;1738953;81;21032;-72
2021/05/18 13:36:49;;;;;;;4.67;1.82;;;;;;;23.21;43.90;99617.31;1739206;82;20878;-75
2021/05/18 13:39:21;;;;;;;4.35;1.80;;;;;;;23.15;44.35;99620.28;1739185;81;20938;-73
2021/05/18 13:41:50;;;;;;;3.58;1.75;;;;;;;23.14;44.54;99623.97;1746823;82;21001;-76
2021/05/18 13:44:17;;;;;;;9.63;1.65;;;;;;;23.13;45.12;99635.70;1747344;80;21001;-73
2021/05/18 13:46:46;;;;;;;5.40;1.80;;;;;;;23.04;45.65;99639.56;1747344;80;21091;-74
2021/05/18 13:49:20;;;;;;;7.15;2.00;;;;;;;22.79;45.92;99644.50;1747278;82;21395;-75
2021/05/18 13:51:49;;;;;;;5.55;1.20;;;;;;;22.52;45.75;99638.97;1747399;82;20986;-77
2021/05/18 13:54:16;;;;;;;3.95;1.60;;;;;;;22.22;46.32;99663.19;1746457;82;20918;-75
2021/05/18 13:56:44;;;;;;;5.92;1.98;;;;;;;21.96;47.53;99657.55;1747350;81;21406;-76
2021/05/18 13:59:11;;;;;;;2.65;1.90;;;;;;;21.68;48.21;99661.78;1747247;80;21070;-75
2021/05/18 14:01:39;;;;;;;3.05;2.00;;;;;;;21.46;48.95;99685.42;1747044;80;21046;-76
2021/05/18 14:04:06;;;;;;;6.17;1.98;;;;;;;21.25;49.69;99701.61;1747195;82;20934;-74
2021/05/18 14:06:34;;;;;;;15.68;2.75;;;;;;;21.05;51.16;99717.33;1747200;82;21406;-79
2021/05/18 14:09:01;;;;;;;16.73;3.20;;;;;;;20.80;53.27;99720.74;1747398;82;20918;-77
2021/05/18 14:11:29;;;;;;;13.68;4.92;;;;;;;20.50;59.29;99723.81;1747079;82;21042;-75
2021/05/18 14:13:58;;;;;;;11.20;3.58;;;;;;;20.07;63.27;99728.75;1747221;80;21005;-72
2021/05/18 14:16:26;;;;;;;6.25;2.72;;;;;;;19.45;66.15;99736.15;1747235;80;20980;-70
2021/05/18 14:18:57;;;;;;;2.45;2.00;;;;;;;18.84;67.16;99737.94;1747346;82;21435;-72
2021/05/18 14:21:25;;;;;;;6.08;2.50;;;;;;;18.37;68.79;99743.88;1747246;82;20905;-69
2021/05/18 14:23:58;;;;;;;4.00;2.58;;;;;;;18.05;69.72;99731.87;1747173;82;21065;-71
2021/05/18 14:26:25;;;;;;;4.45;2.67;;;;;;;17.81;70.94;99733.45;1746542;82;20922;-73
2021/05/18 14:28:52;;;;;;;4.47;3.27;;;;;;;17.66;71.63;99740.34;1722698;82;21438;-70
2021/05/18 14:31:21;;;;;;;6.37;3.00;;;;;;;17.52;72.35;99743.94;1747197;80;21155;-71
2021/05/18 14:33:48;;;;;;;7.45;3.10;;;;;;;17.42;73.13;99729.95;1747193;82;20993;-72
2021/05/18 14:36:15;;;;;;;3.70;2.45;;;;;;;17.33;73.02;99724.28;1747280;80;21453;-71
2021/05/18 14:38:45;;;;;;;4.58;3.30;;;;;;;17.27;73.81;99724.91;1747135;82;21016;-72
2021/05/18 14:46:31;;;;;;;4.75;4.15;;;;;;;17.17;74.34;99715.25;1747216;80;20953;-69
2021/05/18 14:54:43;;;;;;;7.90;2.47;;;;;;;17.09;75.29;99698.48;1747223;82;20917;-71
2021/05/18 14:56:54;;;;;;;4.58;2.90;;;;;;;17.09;75.29;99698.48;1743929;82;20910;-71
2021/05/18 14:59:22;;;;;;;2.90;2.47;;;;;;;17.07;75.66;99700.45;1747170;82;20946;-69
2021/05/18 15:01:49;;;;;;;5.45;3.40;;;;;;;17.08;76.01;99703.45;1747213;82;21083;-67
2021/05/18 15:04:16;;;;;;;5.45;3.85;;;;;;;17.06;76.02;99701.45;1747222;82;20921;-71
2021/05/18 15:06:44;;;;;;;5.60;3.47;;;;;;;17.05;76.40;99700.62;1747358;80;20904;-73
2021/05/18 15:09:11;;;;;;;3.40;3.10;;;;;;;17.10;76.33;99704.13;1747278;80;21029;-70
2021/05/18 15:11:38;;;;;;;4.05;3.22;;;;;;;17.12;76.20;99691.06;1747394;80;21502;-73
2021/05/18 15:14:07;;;;;;;5.58;3.30;;;;;;;17.15;76.46;99696.03;1747235;82;20945;-72
2021/05/18 15:16:35;;;;;;;2.70;2.22;;;;;;;17.17;76.57;99694.55;1747342;82;20937;-73
2021/05/18 15:19:08;;;;;;;4.65;3.20;;;;;;;17.19;76.37;99684.63;1746901;82;20981;-73
2021/05/18 15:21:33;;;;;;;6.80;4.20;;;;;;;17.22;76.49;99678.19;1746965;80;21452;-73
2021/05/18 15:24:01;;;;;;;11.65;3.62;;;;;;;17.27;76.53;99675.88;1747358;82;20953;-73
2021/05/18 15:26:28;;;;;;;5.95;3.17;;;;;;;17.30;76.79;99668.96;1747279;82;21738;-72
2021/05/18 15:28:54;;;;;;;4.47;2.47;;;;;;;17.35;76.40;99675.42;1747143;82;20893;-73
2021/05/18 15:31:21;;;;;;;5.25;2.37;;;;;;;17.43;75.86;99661.86;1747330;82;20866;-72
2021/05/18 15:33:48;;;;;;;4.85;3.15;;;;;;;17.43;75.86;99661.86;1747346;80;21017;-73
2021/05/18 15:36:15;;;;;;;3.22;2.92;;;;;;;17.46;75.68;99662.39;1746946;82;20905;-74
2021/05/18 15:38:45;;;;;;;5.60;3.95;;;;;;;17.46;75.80;99654.44;1747357;82;21467;-71
2021/05/18 15:41:12;;;;;;;10.13;5.25;;;;;;;17.49;75.65;99658.58;1747176;82;20874;-74
2021/05/18 15:43:39;;;;;;;9.28;6.37;;;;;;;17.53;75.50;99655.95;1747308;80;21000;-72
2021/05/18 15:46:06;;;;;;;9.13;5.10;;;;;;;17.55;75.14;99652.64;1747148;82;20917;-70
2021/05/18 15:48:33;;;;;;;5.60;4.20;;;;;;;17.56;74.90;99647.66;1747221;82;21463;-71
2021/05/18 15:51:00;;;;;;;5.90;3.08;;;;;;;17.56;74.73;99652.97;1747189;82;21493;-72
2021/05/18 15:55:26;;;;;;;4.97;3.72;;;;;;;17.58;74.67;99650.98;1815614;79;22572;-72
2021/05/18 15:57:55;;;;;;;3.95;3.72;;;;;;;17.52;74.70;99659.58;1789231;79;20949;-72
2021/05/18 16:00:22;;;;;;;3.77;3.40;;;;;;;17.50;74.68;99654.45;1788943;80;21474;-71
2021/05/18 16:02:49;;;;;;;3.92;3.30;;;;;;;17.49;74.40;99659.41;1789095;80;20905;-71
2021/05/18 16:05:19;;;;;;;3.65;3.27;;;;;;;17.47;74.31;99659.23;1789352;79;21453;-78
2021/05/18 16:07:53;;;;;;;5.33;4.20;;;;;;;17.43;74.50;99649.47;1758912;80;20973;-72
2021/05/18 16:10:15;;;;;;;3.58;3.27;;;;;;;17.41;74.62;99648.80;1787940;79;20893;-72
2021/05/18 16:12:42;;;;;;;4.12;3.33;;;;;;;17.42;74.84;99646.97;1788858;80;21120;-72
2021/05/18 16:15:10;;;;;;;4.20;3.37;;;;;;;17.43;74.78;99645.96;1788557;80;21442;-73
2021/05/18 16:17:38;;;;;;;3.87;3.58;;;;;;;17.40;74.74;99648.44;1788837;79;20901;-71
2021/05/18 16:20:08;;;;;;;4.80;3.77;;;;;;;17.39;74.99;99649.45;1758997;80;20980;-71
2021/05/18 16:22:35;;;;;;;4.55;3.25;;;;;;;17.36;74.95;99643.13;1788727;79;20960;-72
2021/05/18 16:25:03;;;;;;;3.75;2.90;;;;;;;17.34;74.92;99645.09;1788908;80;21049;-71
2021/05/18 16:27:30;;;;;;;8.63;2.62;;;;;;;17.29;75.05;99636.30;1788700;80;20898;-71
2021/05/18 16:29:57;;;;;;;3.72;2.47;;;;;;;17.24;75.13;99640.44;1788594;79;21568;-70
2021/05/18 16:32:24;;;;;;;2.90;2.65;;;;;;;17.20;75.32;99636.77;1788870;80;20977;-72
2021/05/18 16:34:51;;;;;;;4.72;3.50;;;;;;;17.18;75.25;99633.94;1788842;79;20916;-70
2021/05/18 16:37:18;;;;;;;3.30;3.00;;;;;;;17.17;75.33;99630.97;1788745;80;21067;-73
2021/05/18 16:39:45;;;;;;;4.20;3.45;;;;;;;17.15;75.19;99627.14;1788767;79;20972;-71
2021/05/18 16:42:12;;;;;;;3.50;3.15;;;;;;;17.15;75.25;99624.50;1788771;79;20853;-72